Abbott, Pennsylvania
Current Conditions -  °F | °C
As of 7:35 AM on Tuesday 27 Jan 2015 (Local Time) from KN38 Reporting Station
Overcast Overcast  
Wind Chill:   Ceiling: 1100
Heat Index: 14°   Visibility: 10mi
Dew Point: 10°   Wind: 12mph
Humidity: 86%   Direction: 350°N
Pressure: 29.78"   Gusts: 18mph
Location:  41.6755°N, 77.7071°W
Report Text: KN38 271235Z AUTO 35010G16KT 10SM SCT005 BKN011 OVC075 M10/M12 A2978 RMK AO2
Loading
Personal Weather Stations






























Interactive Weather Map New forecast layout! Learn more

10-Day Weather Forecast

Advertisements
Track Severe Weather on mobile